Time;durP1;ratioP1;P1;durP2;ratioP2;P2;SDS_P1;SDS_P2;PMS_P1;PMS_P2;Temp;Humidity;BMP_temperature;BMP_pressure;BME280_temperature;BME280_humidity;BME280_pressure;Samples;Min_cycle;Max_cycle;Signal;HPM_P1;HPM_P2
2022/04/15 00:02:24;;;;;;;;;9.00;8.00;;;;;-146.03;100.00;60875.16;6334582;22;45471;-83
2022/04/15 00:04:50;;;;;;;;;6.75;6.75;;;;;-146.03;100.00;60875.16;6306284;22;45394;-83
2022/04/15 00:07:17;;;;;;;;;7.25;6.50;;;;;-146.03;100.00;60875.16;6333841;22;45979;-83
2022/04/15 00:09:43;;;;;;;;;11.00;7.50;;;;;-146.03;100.00;60875.16;6306412;22;45430;-83
2022/04/15 00:12:10;;;;;;;;;6.75;6.75;;;;;-146.03;100.00;60875.16;6305063;22;45463;-84
2022/04/15 00:14:36;;;;;;;;;9.75;7.75;;;;;-146.03;100.00;60875.16;6305215;22;45500;-83
2022/04/15 00:17:02;;;;;;;;;8.25;8.25;;;;;-146.03;100.00;60875.16;6333403;22;45356;-82
2022/04/15 00:19:28;;;;;;;;;9.75;9.50;;;;;-146.03;100.00;60875.16;6331197;22;45567;-83
2022/04/15 00:21:53;;;;;;;;;9.00;7.75;;;;;-146.03;100.00;60875.16;6333426;22;45637;-83
2022/04/15 00:24:18;;;;;;;;;5.25;5.25;;;;;-146.03;100.00;60875.16;6333785;22;45229;-83
2022/04/15 00:26:44;;;;;;;;;8.25;8.00;;;;;-146.03;100.00;60875.16;6333382;22;45332;-84
2022/04/15 00:29:09;;;;;;;;;12.75;7.50;;;;;-146.03;100.00;60875.16;6333453;22;45395;-83
2022/04/15 00:31:35;;;;;;;;;6.50;6.50;;;;;-146.03;100.00;60875.16;6333351;22;45374;-83
2022/04/15 00:34:04;;;;;;;;;7.50;7.50;;;;;-146.03;100.00;60875.16;6333636;22;45559;-84
2022/04/15 00:36:30;;;;;;;;;7.75;7.75;;;;;-146.03;100.00;60875.16;6332681;22;45962;-84
2022/04/15 00:38:55;;;;;;;;;6.25;5.75;;;;;-146.03;100.00;60875.16;6333369;22;45482;-83
2022/04/15 00:41:21;;;;;;;;;9.25;9.25;;;;;-146.03;100.00;60875.16;6305223;22;45340;-83
2022/04/15 00:43:46;;;;;;;;;10.25;10.25;;;;;-146.03;100.00;60875.16;6333499;22;45258;-82
2022/04/15 00:46:12;;;;;;;;;8.25;8.25;;;;;-146.03;100.00;60875.16;6305842;22;48167;-84
2022/04/15 00:48:38;;;;;;;;;8.50;8.50;;;;;-146.03;100.00;60875.16;6333514;22;45213;-83
2022/04/15 00:51:05;;;;;;;;;9.00;9.00;;;;;-146.03;100.00;60875.16;6304449;22;45525;-84
2022/04/15 00:53:32;;;;;;;;;8.25;5.75;;;;;-146.03;100.00;60875.16;6333368;22;45574;-84
2022/04/15 00:56:01;;;;;;;;;9.50;8.75;;;;;-146.03;100.00;60875.16;6333777;22;45308;-83
2022/04/15 00:58:28;;;;;;;;;13.75;13.75;;;;;-146.03;100.00;60875.16;6333406;22;45295;-83
2022/04/15 01:00:55;;;;;;;;;11.50;10.00;;;;;-146.03;100.00;60875.16;6333825;22;45264;-82
2022/04/15 01:03:21;;;;;;;;;10.25;9.00;;;;;-146.03;100.00;60875.16;6333292;22;45343;-83
2022/04/15 01:05:49;;;;;;;;;9.75;9.50;;;;;-146.03;100.00;60875.16;6333180;22;45950;-83
2022/04/15 01:08:19;;;;;;;;;8.25;8.25;;;;;-146.03;100.00;60875.16;6333330;22;45582;-84
2022/04/15 01:10:47;;;;;;;;;10.00;10.00;;;;;-146.03;100.00;60875.16;6330973;22;45283;-83
2022/04/15 01:13:13;;;;;;;;;8.50;8.50;;;;;-146.03;100.00;60875.16;6333766;22;45272;-83
2022/04/15 01:15:40;;;;;;;;;9.75;9.75;;;;;-146.03;100.00;60875.16;6333200;22;45320;-83
2022/04/15 01:18:06;;;;;;;;;9.50;9.50;;;;;-146.03;100.00;60875.16;6333468;22;45722;-83
2022/04/15 01:20:32;;;;;;;;;10.50;10.00;;;;;-146.03;100.00;60875.16;6304731;22;45355;-84
2022/04/15 01:23:10;;;;;;;;;10.00;10.00;;;;;-146.03;100.00;60875.16;6333709;22;45356;-83
2022/04/15 01:25:37;;;;;;;;;10.50;10.00;;;;;-146.03;100.00;60875.16;6334838;22;45470;-85
2022/04/15 01:28:03;;;;;;;;;9.50;9.50;;;;;-146.03;100.00;60875.16;6333861;22;45293;-84
2022/04/15 01:30:28;;;;;;;;;10.50;10.50;;;;;-146.03;100.00;60875.16;6333198;22;45306;-84
2022/04/15 01:32:54;;;;;;;;;13.00;11.75;;;;;-146.03;100.00;60875.16;6333590;22;45275;-83
2022/04/15 01:35:22;;;;;;;;;13.00;10.50;;;;;-146.03;100.00;60875.16;6332765;22;45365;-83
2022/04/15 01:37:49;;;;;;;;;14.50;11.75;;;;;-146.03;100.00;60875.16;6304523;22;46101;-82
2022/04/15 01:40:16;;;;;;;;;13.50;12.25;;;;;-146.03;100.00;60875.16;6334537;22;45299;-83
2022/04/15 01:42:43;;;;;;;;;9.75;8.50;;;;;-146.03;100.00;60875.16;6335220;22;45427;-83
2022/04/15 01:45:10;;;;;;;;;14.00;13.75;;;;;-146.03;100.00;60875.16;6334274;22;46605;-83
2022/04/15 01:47:36;;;;;;;;;12.50;12.50;;;;;-146.03;100.00;60875.16;6335185;22;45321;-83
2022/04/15 01:50:03;;;;;;;;;13.75;10.00;;;;;-146.03;100.00;60875.16;6306410;22;45379;-84
2022/04/15 01:52:28;;;;;;;;;12.00;11.50;;;;;-146.03;100.00;60875.16;6335756;22;45316;-83
2022/04/15 01:54:54;;;;;;;;;15.00;11.50;;;;;-146.03;100.00;60875.16;6334973;22;45392;-84
2022/04/15 01:57:19;;;;;;;;;11.50;11.50;;;;;-146.03;100.00;60875.16;6307061;22;45618;-83
2022/04/15 01:59:44;;;;;;;;;12.00;10.00;;;;;-146.03;100.00;60875.16;6335144;22;45518;-82
2022/04/15 02:02:10;;;;;;;;;14.00;14.00;;;;;-146.03;100.00;60875.16;6335240;22;45278;-83
2022/04/15 02:04:36;;;;;;;;;12.00;11.25;;;;;-146.03;100.00;60875.16;6334384;22;45286;-83
2022/04/15 02:07:02;;;;;;;;;10.00;10.00;;;;;-146.03;100.00;60875.16;6334539;22;45290;-82
2022/04/15 02:09:27;;;;;;;;;15.00;13.50;;;;;-146.03;100.00;60875.16;6335274;22;45237;-83
2022/04/15 02:11:53;;;;;;;;;11.25;11.00;;;;;-146.03;100.00;60875.16;6334942;22;45470;-83
2022/04/15 02:14:20;;;;;;;;;10.75;10.75;;;;;-146.03;100.00;60875.16;6334866;22;45321;-83
2022/04/15 02:16:46;;;;;;;;;10.50;10.50;;;;;-146.03;100.00;60875.16;6334875;22;45310;-83
2022/04/15 02:19:12;;;;;;;;;10.25;10.25;;;;;-146.03;100.00;60875.16;6334561;22;45307;-82
2022/04/15 02:21:38;;;;;;;;;9.75;9.00;;;;;-146.03;100.00;60875.16;6334921;22;45288;-83
2022/04/15 02:24:04;;;;;;;;;10.00;10.00;;;;;-146.03;100.00;60875.16;6334612;22;46157;-83
2022/04/15 02:26:29;;;;;;;;;9.75;8.25;;;;;-146.03;100.00;60875.16;6306545;22;45372;-82
2022/04/15 02:28:55;;;;;;;;;9.75;9.75;;;;;-146.03;100.00;60875.16;6334145;22;52892;-83
2022/04/15 02:31:20;;;;;;;;;15.25;12.00;;;;;-146.03;100.00;60875.16;6334937;22;45515;-83
2022/04/15 02:33:45;;;;;;;;;12.00;11.00;;;;;-146.03;100.00;60875.16;6333670;22;55296;-84
2022/04/15 02:36:11;;;;;;;;;9.50;9.25;;;;;-146.03;100.00;60875.16;6334619;22;45206;-83
2022/04/15 02:38:36;;;;;;;;;14.00;14.00;;;;;-146.03;100.00;60875.16;6334343;22;45249;-83
2022/04/15 02:41:04;;;;;;;;;9.50;9.50;;;;;-146.03;100.00;60875.16;6334588;22;45333;-84
2022/04/15 02:43:33;;;;;;;;;14.75;14.00;;;;;-146.03;100.00;60875.16;6334107;22;48280;-83
2022/04/15 02:46:00;;;;;;;;;13.50;13.00;;;;;-146.03;100.00;60875.16;6334497;22;45183;-83
2022/04/15 02:48:26;;;;;;;;;17.50;15.25;;;;;-146.03;100.00;60875.16;6334055;22;45591;-83
2022/04/15 02:50:52;;;;;;;;;13.50;13.50;;;;;-146.03;100.00;60875.16;6334887;22;45688;-83
2022/04/15 02:53:18;;;;;;;;;14.00;13.00;;;;;-146.03;100.00;60875.16;6334423;22;45981;-82
2022/04/15 02:55:43;;;;;;;;;16.50;14.00;;;;;-146.03;100.00;60875.16;6335042;22;45331;-83
2022/04/15 02:58:08;;;;;;;;;14.50;14.50;;;;;-146.03;100.00;60875.16;6336584;22;45319;-83
2022/04/15 03:00:34;;;;;;;;;11.50;11.00;;;;;-146.03;100.00;60875.16;6336006;22;45272;-83
2022/04/15 03:02:59;;;;;;;;;14.75;13.00;;;;;-146.03;100.00;60875.16;6335156;22;46125;-83
2022/04/15 03:05:25;;;;;;;;;15.50;13.00;;;;;-146.03;100.00;60875.16;6335907;22;45315;-83
2022/04/15 03:07:50;;;;;;;;;13.75;12.00;;;;;-146.03;100.00;60875.16;6335654;22;45553;-83
2022/04/15 03:10:15;;;;;;;;;13.50;11.75;;;;;-146.03;100.00;60875.16;6335227;22;57812;-82
2022/04/15 03:12:41;;;;;;;;;12.50;12.50;;;;;-146.03;100.00;60875.16;6334518;22;45427;-83
2022/04/15 03:15:09;;;;;;;;;14.50;13.00;;;;;-146.03;100.00;60875.16;6335792;22;45303;-83
2022/04/15 03:17:35;;;;;;;;;13.00;13.00;;;;;-146.03;100.00;60875.16;6307016;22;45313;-83
2022/04/15 03:20:02;;;;;;;;;14.25;13.75;;;;;-146.03;100.00;60875.16;6335601;22;45415;-84
2022/04/15 03:22:38;;;;;;;;;15.75;13.75;;;;;-146.03;100.00;60875.16;6335265;22;46094;-85
2022/04/15 03:25:05;;;;;;;;;15.00;13.75;;;;;-146.03;100.00;60875.16;6336298;22;45220;-82
2022/04/15 03:27:30;;;;;;;;;13.00;11.50;;;;;-146.03;100.00;60875.16;6335402;22;45292;-82
2022/04/15 03:29:56;;;;;;;;;11.50;11.50;;;;;-146.03;100.00;60875.16;6306394;22;45359;-84
2022/04/15 03:32:21;;;;;;;;;10.50;10.50;;;;;-146.03;100.00;60875.16;6335023;22;45418;-82
2022/04/15 03:34:46;;;;;;;;;11.75;11.75;;;;;-146.03;100.00;60875.16;6307353;22;45238;-82
2022/04/15 03:37:12;;;;;;;;;12.25;11.25;;;;;-146.03;100.00;60875.16;6335737;22;45351;-82
2022/04/15 03:39:37;;;;;;;;;13.00;13.00;;;;;-146.03;100.00;60875.16;6307430;22;45316;-82
2022/04/15 03:42:03;;;;;;;;;11.75;11.25;;;;;-146.03;100.00;60875.16;6335360;22;45407;-83
2022/04/15 03:44:29;;;;;;;;;14.00;12.75;;;;;-146.03;100.00;60875.16;6335752;22;45349;-84
2022/04/15 03:46:54;;;;;;;;;11.00;10.00;;;;;-146.03;100.00;60875.16;6335968;22;45289;-84
2022/04/15 03:49:20;;;;;;;;;12.75;11.50;;;;;-146.03;100.00;60875.16;6334247;22;45303;-84
2022/04/15 03:51:45;;;;;;;;;14.25;11.50;;;;;-146.03;100.00;60875.16;6336640;22;45416;-84
2022/04/15 03:54:10;;;;;;;;;13.75;11.50;;;;;-146.03;100.00;60875.16;6336231;22;52450;-84
2022/04/15 03:56:36;;;;;;;;;11.75;10.25;;;;;-146.03;100.00;60875.16;6336413;22;45362;-84
2022/04/15 03:59:03;;;;;;;;;10.50;10.50;;;;;-146.03;100.00;60875.16;6308406;22;45317;-84
2022/04/15 04:01:28;;;;;;;;;12.00;12.00;;;;;-146.03;100.00;60875.16;6335990;22;45377;-84
2022/04/15 04:03:54;;;;;;;;;10.75;10.50;;;;;-146.03;100.00;60875.16;6307729;22;45387;-84
2022/04/15 04:06:19;;;;;;;;;9.00;9.00;;;;;-146.03;100.00;60875.16;6335872;22;47793;-84
2022/04/15 04:08:49;;;;;;;;;13.50;12.25;;;;;-146.03;100.00;60875.16;6335564;22;45449;-84
2022/04/15 04:11:16;;;;;;;;;15.50;11.75;;;;;-146.03;100.00;60875.16;6335869;22;46445;-84
2022/04/15 04:13:41;;;;;;;;;13.75;12.25;;;;;-146.03;100.00;60875.16;6336030;22;45257;-84
2022/04/15 04:16:07;;;;;;;;;11.25;10.00;;;;;-146.03;100.00;60875.16;6335763;22;45374;-84
2022/04/15 04:18:32;;;;;;;;;12.25;12.25;;;;;-146.03;100.00;60875.16;6336086;22;45282;-84
2022/04/15 04:20:57;;;;;;;;;10.75;10.50;;;;;-146.03;100.00;60875.16;6336193;22;46086;-84
2022/04/15 04:23:23;;;;;;;;;13.00;11.75;;;;;-146.03;100.00;60875.16;6335975;22;48439;-84
2022/04/15 04:25:48;;;;;;;;;15.25;13.00;;;;;-146.03;100.00;60875.16;6307968;22;45286;-84
2022/04/15 04:28:13;;;;;;;;;14.25;12.00;;;;;-146.03;100.00;60875.16;6336553;22;45367;-84
2022/04/15 04:30:39;;;;;;;;;12.25;12.00;;;;;-146.03;100.00;60875.16;6335653;22;46118;-84
2022/04/15 04:33:04;;;;;;;;;12.00;11.75;;;;;-146.03;100.00;60875.16;6336052;22;45458;-84
2022/04/15 04:35:30;;;;;;;;;15.25;13.25;;;;;-146.03;100.00;60875.16;6336400;22;45328;-84
2022/04/15 04:37:55;;;;;;;;;14.25;14.25;;;;;-146.03;100.00;60875.16;6336382;22;45344;-84
2022/04/15 04:40:21;;;;;;;;;11.00;11.00;;;;;-146.03;100.00;60875.16;6336437;22;46118;-84
2022/04/15 04:42:47;;;;;;;;;16.75;15.50;;;;;-146.03;100.00;60875.16;6336330;22;45260;-84
2022/04/15 04:45:13;;;;;;;;;12.75;12.75;;;;;-146.03;100.00;60875.16;6335888;22;45410;-84
2022/04/15 04:47:40;;;;;;;;;15.25;14.50;;;;;-146.03;100.00;60875.16;6334834;22;45221;-84
2022/04/15 04:50:08;;;;;;;;;14.50;14.50;;;;;-146.03;100.00;60875.16;6334846;22;45832;-85
2022/04/15 04:52:34;;;;;;;;;13.00;13.00;;;;;-146.03;100.00;60875.16;6334610;22;45338;-85
2022/04/15 04:55:00;;;;;;;;;20.75;15.50;;;;;-146.03;100.00;60875.16;6334926;22;45393;-85
2022/04/15 04:57:25;;;;;;;;;15.75;14.50;;;;;-146.03;100.00;60875.16;6334581;22;45299;-85
2022/04/15 04:59:50;;;;;;;;;18.75;15.50;;;;;-146.03;100.00;60875.16;6334435;22;45606;-84
2022/04/15 05:02:16;;;;;;;;;14.75;14.75;;;;;-146.03;100.00;60875.16;6334730;22;45302;-85
2022/04/15 05:04:41;;;;;;;;;15.50;14.50;;;;;-146.03;100.00;60875.16;6305654;22;54236;-84
2022/04/15 05:07:06;;;;;;;;;13.50;13.50;;;;;-146.03;100.00;60875.16;6334347;22;45405;-84
2022/04/15 05:09:32;;;;;;;;;16.00;15.00;;;;;-146.03;100.00;60875.16;6334674;22;45253;-84
2022/04/15 05:11:57;;;;;;;;;15.75;15.75;;;;;-146.03;100.00;60875.16;6334090;22;45252;-84
2022/04/15 05:14:23;;;;;;;;;16.75;14.50;;;;;-146.03;100.00;60875.16;6334618;22;45280;-84
2022/04/15 05:16:48;;;;;;;;;18.50;16.00;;;;;-146.03;100.00;60875.16;6334806;22;45318;-84
2022/04/15 05:19:13;;;;;;;;;18.25;18.25;;;;;-146.03;100.00;60875.16;6305904;22;48082;-84
2022/04/15 05:21:40;;;;;;;;;17.25;17.25;;;;;-146.03;100.00;60875.16;6334694;22;45285;-84
2022/04/15 05:24:07;;;;;;;;;16.00;16.00;;;;;-146.03;100.00;60875.16;6334396;22;45231;-84
2022/04/15 05:26:33;;;;;;;;;16.00;16.00;;;;;-146.03;100.00;60875.16;6334238;22;45356;-84
2022/04/15 05:28:59;;;;;;;;;17.25;17.00;;;;;-146.03;100.00;60875.16;6305670;22;48161;-84
2022/04/15 05:31:25;;;;;;;;;22.50;17.75;;;;;-146.03;100.00;60875.16;6334739;22;45421;-84
2022/04/15 05:33:50;;;;;;;;;19.00;18.00;;;;;-146.03;100.00;60875.16;6334715;22;45679;-84
2022/04/15 05:36:16;;;;;;;;;14.50;14.50;;;;;-146.03;100.00;60875.16;6306138;22;45387;-84
2022/04/15 05:38:41;;;;;;;;;18.75;18.75;;;;;-146.03;100.00;60875.16;6335137;22;45569;-84
2022/04/15 05:41:07;;;;;;;;;18.00;17.50;;;;;-146.03;100.00;60875.16;6335433;22;45335;-84
2022/04/15 05:43:32;;;;;;;;;21.50;19.00;;;;;-146.03;100.00;60875.16;6336074;22;45330;-84
2022/04/15 05:45:57;;;;;;;;;20.00;17.75;;;;;-146.03;100.00;60875.16;6335960;22;45459;-84
2022/04/15 05:48:23;;;;;;;;;20.75;20.75;;;;;-146.03;100.00;60875.16;6335853;22;45323;-84
2022/04/15 05:50:48;;;;;;;;;21.50;18.75;;;;;-146.03;100.00;60875.16;6307668;22;45326;-84
2022/04/15 05:53:14;;;;;;;;;22.75;21.00;;;;;-146.03;100.00;60875.16;6336021;22;45529;-84
2022/04/15 05:55:39;;;;;;;;;20.75;20.00;;;;;-146.03;100.00;60875.16;6335511;22;45255;-85
2022/04/15 05:58:06;;;;;;;;;21.25;21.25;;;;;-146.03;100.00;60875.16;6335948;22;45860;-84
2022/04/15 06:00:31;;;;;;;;;24.25;23.25;;;;;-146.03;100.00;60875.16;6335423;22;45292;-84
2022/04/15 06:02:56;;;;;;;;;17.25;17.25;;;;;-146.03;100.00;60875.16;6335420;22;45441;-84
2022/04/15 06:05:24;;;;;;;;;22.75;20.00;;;;;-146.03;100.00;60875.16;6335626;22;45268;-84
2022/04/15 06:07:50;;;;;;;;;25.25;18.25;;;;;-146.03;100.00;60875.16;6307021;22;47070;-84
2022/04/15 06:10:15;;;;;;;;;21.75;21.75;;;;;-146.03;100.00;60875.16;6335462;22;45277;-84
2022/04/15 06:15:28;;;;;;;;;19.25;18.50;;;;;-146.03;100.00;60875.16;6335253;22;45654;-85
2022/04/15 06:17:54;;;;;;;;;20.25;18.50;;;;;-146.03;100.00;60875.16;6306964;22;46956;-84
2022/04/15 06:20:19;;;;;;;;;14.00;14.00;;;;;-146.03;100.00;60875.16;6335422;22;45131;-84
2022/04/15 06:22:45;;;;;;;;;14.75;14.25;;;;;-146.03;100.00;60875.16;6335928;22;45205;-84
2022/04/15 06:25:11;;;;;;;;;12.75;12.00;;;;;-146.03;100.00;60875.16;6335365;22;45170;-84
2022/04/15 06:27:36;;;;;;;;;13.50;13.00;;;;;-146.03;100.00;60875.16;6335575;22;46368;-84
2022/04/15 06:30:03;;;;;;;;;9.75;9.75;;;;;-146.03;100.00;60875.16;6335507;22;45280;-84
2022/04/15 06:32:28;;;;;;;;;12.25;11.75;;;;;-146.03;100.00;60875.16;6336191;22;45246;-84
2022/04/15 06:34:53;;;;;;;;;9.00;8.25;;;;;-146.03;100.00;60875.16;6308804;22;45242;-84
2022/04/15 06:37:19;;;;;;;;;12.25;12.25;;;;;-146.03;100.00;60875.16;6337135;22;45529;-84
2022/04/15 06:39:50;;;;;;;;;12.00;12.00;;;;;-146.03;100.00;60875.16;6336124;22;45319;-84
2022/04/15 06:42:24;;;;;;;;;10.50;10.00;;;;;-146.03;100.00;60875.16;6335914;22;45333;-84
2022/04/15 06:44:50;;;;;;;;;16.00;14.25;;;;;-146.03;100.00;60875.16;6336709;22;45295;-84
2022/04/15 06:47:16;;;;;;;;;10.00;9.50;;;;;-146.03;100.00;60875.16;6335629;22;45406;-84
2022/04/15 06:49:42;;;;;;;;;13.00;13.00;;;;;-146.03;100.00;60875.16;6308166;22;45325;-82
2022/04/15 06:52:08;;;;;;;;;12.00;10.50;;;;;-146.03;100.00;60875.16;6336845;22;45229;-82
2022/04/15 06:54:33;;;;;;;;;10.75;10.50;;;;;-146.03;100.00;60875.16;6307802;22;45292;-82
2022/04/15 06:56:58;;;;;;;;;11.50;11.50;;;;;-146.03;100.00;60875.16;6336366;22;45381;-82
2022/04/15 06:59:24;;;;;;;;;14.50;14.50;;;;;-146.03;100.00;60875.16;6336759;22;45374;-82
2022/04/15 07:01:49;;;;;;;;;11.25;11.25;;;;;-146.03;100.00;60875.16;6307757;22;45278;-82
2022/04/15 07:04:15;;;;;;;;;13.00;13.00;;;;;-146.03;100.00;60875.16;6337003;22;45308;-82
2022/04/15 07:06:41;;;;;;;;;14.00;13.25;;;;;-146.03;100.00;60875.16;6336394;22;45494;-82
2022/04/15 07:09:06;;;;;;;;;13.50;12.00;;;;;-146.03;100.00;60875.16;6336616;22;45303;-82
2022/04/15 07:11:32;;;;;;;;;16.25;12.25;;;;;-146.03;100.00;60875.16;6308455;22;45433;-82
2022/04/15 07:13:57;;;;;;;;;19.00;15.50;;;;;-146.03;100.00;60875.16;6334710;22;45308;-82
2022/04/15 07:16:22;;;;;;;;;14.75;13.50;;;;;-146.03;100.00;60875.16;6335192;22;47415;-83
2022/04/15 07:18:47;;;;;;;;;15.75;14.50;;;;;-146.03;100.00;60875.16;6307320;22;48888;-83
2022/04/15 07:21:13;;;;;;;;;15.50;13.75;;;;;-146.03;100.00;60875.16;6336633;22;45388;-84
2022/04/15 07:23:38;;;;;;;;;13.00;13.00;;;;;-146.03;100.00;60875.16;6336328;22;45385;-84
2022/04/15 07:26:04;;;;;;;;;16.00;13.25;;;;;-146.03;100.00;60875.16;6307959;22;46930;-84
2022/04/15 07:28:29;;;;;;;;;14.50;14.50;;;;;-146.03;100.00;60875.16;6336569;22;45375;-83
2022/04/15 07:30:55;;;;;;;;;11.75;11.75;;;;;-146.03;100.00;60875.16;6336718;22;45284;-84
2022/04/15 07:33:20;;;;;;;;;13.00;12.00;;;;;-146.03;100.00;60875.16;6336668;22;45467;-84
2022/04/15 07:35:46;;;;;;;;;14.00;13.00;;;;;-146.03;100.00;60875.16;6336240;22;45528;-84
2022/04/15 07:38:12;;;;;;;;;12.50;9.50;;;;;-146.03;100.00;60875.16;6335937;22;45313;-84
2022/04/15 07:40:37;;;;;;;;;18.50;15.75;;;;;-146.03;100.00;60875.16;6336952;22;45353;-84
2022/04/15 07:43:02;;;;;;;;;14.75;13.00;;;;;-146.03;100.00;60875.16;6335977;22;45346;-84
2022/04/15 07:45:28;;;;;;;;;12.75;12.25;;;;;-146.03;100.00;60875.16;6336264;22;45365;-84
2022/04/15 07:47:54;;;;;;;;;15.50;13.75;;;;;-146.03;100.00;60875.16;6336419;22;45334;-84
2022/04/15 07:50:22;;;;;;;;;13.75;12.75;;;;;-146.03;100.00;60875.16;6308359;22;45546;-84
2022/04/15 07:52:47;;;;;;;;;13.50;11.50;;;;;-146.03;100.00;60875.16;6335950;22;45353;-84
2022/04/15 07:55:12;;;;;;;;;16.00;14.50;;;;;-146.03;100.00;60875.16;6308082;22;47965;-84
2022/04/15 07:57:38;;;;;;;;;12.00;12.00;;;;;-146.03;100.00;60875.16;6336441;22;45237;-84
2022/04/15 08:00:03;;;;;;;;;9.25;9.25;;;;;-146.03;100.00;60875.16;6336155;22;45451;-84
2022/04/15 08:02:29;;;;;;;;;11.75;10.25;;;;;-146.03;100.00;60875.16;6308011;22;45337;-84
2022/04/15 08:04:54;;;;;;;;;10.25;10.25;;;;;-146.03;100.00;60875.16;6335708;22;56329;-84
2022/04/15 08:07:20;;;;;;;;;12.50;11.75;;;;;-146.03;100.00;60875.16;6307325;22;45861;-84
2022/04/15 08:09:45;;;;;;;;;11.50;11.50;;;;;-146.03;100.00;60875.16;6336401;22;45563;-84
2022/04/15 08:12:11;;;;;;;;;13.75;11.25;;;;;-146.03;100.00;60875.16;6336687;22;45519;-82
2022/04/15 08:14:36;;;;;;;;;15.75;11.00;;;;;-146.03;100.00;60875.16;6335534;22;46168;-82
2022/04/15 08:17:02;;;;;;;;;12.50;11.25;;;;;-146.03;100.00;60875.16;6336490;22;45229;-82
2022/04/15 08:19:28;;;;;;;;;13.00;12.25;;;;;-146.03;100.00;60875.16;6336590;22;45292;-82
2022/04/15 08:21:53;;;;;;;;;13.25;13.25;;;;;-146.03;100.00;60875.16;6335668;22;45357;-82
2022/04/15 08:24:19;;;;;;;;;9.75;9.75;;;;;-146.03;100.00;60875.16;6336242;22;46096;-82
2022/04/15 08:26:45;;;;;;;;;12.00;11.00;;;;;-146.03;100.00;60875.16;6336220;22;45316;-82
2022/04/15 08:29:11;;;;;;;;;11.00;11.00;;;;;-146.03;100.00;60875.16;6336611;22;45396;-82
2022/04/15 08:31:36;;;;;;;;;17.25;13.00;;;;;-146.03;100.00;60875.16;6336027;22;45393;-82
2022/04/15 08:34:02;;;;;;;;;9.00;9.00;;;;;-146.03;100.00;60875.16;6335844;22;46246;-82
2022/04/15 08:36:27;;;;;;;;;9.75;9.75;;;;;-146.03;100.00;60875.16;6335585;22;45347;-83
2022/04/15 08:38:53;;;;;;;;;10.75;8.00;;;;;-146.03;100.00;60875.16;6336336;22;45705;-82
2022/04/15 08:41:22;;;;;;;;;8.50;7.00;;;;;-146.03;100.00;60875.16;6336455;22;45391;-82
2022/04/15 08:43:47;;;;;;;;;7.75;7.75;;;;;-146.03;100.00;60875.16;6336161;22;46158;-82
2022/04/15 08:46:12;;;;;;;;;9.00;7.00;;;;;-146.03;100.00;60875.16;6336049;22;45277;-82
2022/04/15 08:48:39;;;;;;;;;9.00;8.00;;;;;-146.03;100.00;60875.16;6308147;22;45293;-82
2022/04/15 08:51:04;;;;;;;;;7.25;5.25;;;;;-146.03;100.00;60875.16;6335839;22;45178;-83
2022/04/15 08:53:31;;;;;;;;;10.50;10.50;;;;;-146.03;100.00;60875.16;6335989;22;45355;-83
2022/04/15 08:55:57;;;;;;;;;7.50;7.50;;;;;-146.03;100.00;60875.16;6307712;22;45805;-83
2022/04/15 08:58:27;;;;;;;;;7.50;6.25;;;;;-146.03;100.00;60875.16;6336345;22;45376;-85
2022/04/15 09:00:52;;;;;;;;;6.25;6.00;;;;;-146.03;100.00;60875.16;6336318;22;45248;-85
2022/04/15 09:03:18;;;;;;;;;7.50;7.50;;;;;-146.03;100.00;60875.16;6307832;22;47421;-85
2022/04/15 09:05:56;;;;;;;;;8.25;8.25;;;;;-146.03;100.00;60875.16;6307183;22;45309;-84
2022/04/15 09:08:21;;;;;;;;;9.25;9.25;;;;;-146.03;100.00;60875.16;6282169;22;45413;-84
2022/04/15 09:10:56;;;;;;;;;6.50;6.50;;;;;-146.03;100.00;60875.16;6305041;22;45284;-84
2022/04/15 09:13:23;;;;;;;;;5.75;5.00;;;;;-146.03;100.00;60875.16;6304733;22;45495;-85
2022/04/15 09:15:49;;;;;;;;;11.50;11.50;;;;;-146.03;100.00;60875.16;6302225;22;45397;-84
2022/04/15 09:18:29;;;;;;;;;6.00;6.00;;;;;-146.03;100.00;60875.16;6304562;22;45650;-85
2022/04/15 09:21:15;;;;;;;;;12.75;11.50;;;;;-146.03;100.00;60875.16;6304741;22;45321;-85
2022/04/15 09:23:40;;;;;;;;;10.00;8.50;;;;;-146.03;100.00;60875.16;6304601;22;45313;-84
2022/04/15 09:26:05;;;;;;;;;6.75;5.50;;;;;-146.03;100.00;60875.16;6276408;22;45328;-84
2022/04/15 09:28:34;;;;;;;;;10.25;9.50;;;;;-146.03;100.00;60875.16;6276755;22;45367;-85
2022/04/15 09:30:59;;;;;;;;;6.25;5.75;;;;;-146.03;100.00;60875.16;6304591;22;45438;-82
2022/04/15 09:33:25;;;;;;;;;9.75;8.75;;;;;-146.03;100.00;60875.16;6303604;22;55547;-83
2022/04/15 09:35:54;;;;;;;;;7.50;5.00;;;;;-146.03;100.00;60875.16;6276057;22;45394;-83
2022/04/15 09:38:40;;;;;;;;;5.25;5.25;;;;;-146.03;100.00;60875.16;6276512;22;45368;-82
2022/04/15 09:41:22;;;;;;;;;9.00;6.75;;;;;-146.03;100.00;60875.16;6276457;22;45505;-83
2022/04/15 09:43:52;;;;;;;;;7.00;5.50;;;;;-146.03;100.00;60875.16;6304196;22;46264;-83
2022/04/15 09:46:19;;;;;;;;;7.00;5.25;;;;;-146.03;100.00;60875.16;6304356;22;45320;-83
2022/04/15 09:48:58;;;;;;;;;5.50;5.50;;;;;-146.03;100.00;60875.16;6304096;22;45274;-85
2022/04/15 09:51:23;;;;;;;;;7.50;6.50;;;;;-146.03;100.00;60875.16;6304340;22;45268;-85
2022/04/15 09:53:51;;;;;;;;;6.00;6.00;;;;;-146.03;100.00;60875.16;6304147;22;45307;-83
2022/04/15 09:56:18;;;;;;;;;5.75;5.75;;;;;-146.03;100.00;60875.16;6304405;22;45267;-83
2022/04/15 09:58:48;;;;;;;;;9.00;8.00;;;;;-146.03;100.00;60875.16;6304218;22;45253;-83
2022/04/15 10:01:14;;;;;;;;;7.50;7.00;;;;;-146.03;100.00;60875.16;6304452;22;45191;-83
2022/04/15 10:03:45;;;;;;;;;8.25;7.50;;;;;-146.03;100.00;60875.16;6275335;22;49330;-84
2022/04/15 10:06:12;;;;;;;;;3.00;3.00;;;;;-146.03;100.00;60875.16;6275145;22;45664;-83
2022/04/15 10:08:40;;;;;;;;;3.25;3.00;;;;;-146.03;100.00;60875.16;6303019;22;45301;-84
2022/04/15 10:11:09;;;;;;;;;3.75;3.00;;;;;-146.03;100.00;60875.16;6304237;22;45227;-83
2022/04/15 10:13:35;;;;;;;;;2.50;2.50;;;;;-146.03;100.00;60875.16;6304023;22;45432;-83
2022/04/15 10:16:01;;;;;;;;;2.25;1.00;;;;;-146.03;100.00;60875.16;6304288;22;45245;-85
2022/04/15 10:18:28;;;;;;;;;4.00;3.00;;;;;-146.03;100.00;60875.16;6303578;22;45332;-85
2022/04/15 10:20:54;;;;;;;;;3.50;3.50;;;;;-146.03;100.00;60875.16;6303937;22;45313;-84
2022/04/15 10:23:21;;;;;;;;;3.75;3.50;;;;;-146.03;100.00;60875.16;6304047;22;46155;-83
2022/04/15 10:25:49;;;;;;;;;1.50;1.50;;;;;-146.03;100.00;60875.16;6275411;22;45408;-83
2022/04/15 10:28:19;;;;;;;;;2.00;2.00;;;;;-146.03;100.00;60875.16;6304376;22;45449;-83
2022/04/15 10:31:04;;;;;;;;;3.00;3.00;;;;;-146.03;100.00;60875.16;6276013;22;45531;-83
2022/04/15 10:33:32;;;;;;;;;2.25;2.25;;;;;-146.03;100.00;60875.16;6304015;22;46255;-83
2022/04/15 10:35:59;;;;;;;;;2.75;2.75;;;;;-146.03;100.00;60875.16;6303804;22;45414;-83
2022/04/15 10:38:24;;;;;;;;;1.50;1.00;;;;;-146.03;100.00;60875.16;6304102;22;45325;-83
2022/04/15 10:40:49;;;;;;;;;2.00;2.00;;;;;-146.03;100.00;60875.16;6304199;22;45334;-83
2022/04/15 10:43:23;;;;;;;;;2.00;2.00;;;;;-146.03;100.00;60875.16;6304061;22;45257;-84
2022/04/15 10:45:51;;;;;;;;;2.00;2.00;;;;;-146.03;100.00;60875.16;6275489;22;45353;-84
2022/04/15 10:48:30;;;;;;;;;1.50;1.50;;;;;-146.03;100.00;60875.16;6303549;22;45334;-84
2022/04/15 10:50:55;;;;;;;;;1.00;1.00;;;;;-146.03;100.00;60875.16;6276101;22;45513;-84
2022/04/15 10:53:22;;;;;;;;;2.00;1.00;;;;;-146.03;100.00;60875.16;6303675;22;46046;-84
2022/04/15 10:55:54;;;;;;;;;2.25;2.25;;;;;-146.03;100.00;60875.16;6303851;22;45384;-83
2022/04/15 10:58:21;;;;;;;;;1.00;1.00;;;;;-146.03;100.00;60875.16;6304159;22;45154;-84
2022/04/15 11:01:18;;;;;;;;;1.25;1.00;;;;;-146.03;100.00;60875.16;6303660;22;45257;-83